Time;durP1;ratioP1;P1;durP2;ratioP2;P2;SDS_P1;SDS_P2;PMS_P1;PMS_P2;Temp;Humidity;BMP_temperature;BMP_pressure;BME280_temperature;BME280_humidity;BME280_pressure;Samples;Min_cycle;Max_cycle;Signal;HPM_P1;HPM_P2
2022/01/07 00:01:17;;;;;;;4.80;4.40;;;-3.90;99.90;;;;;;5125064;27;20536;-58
2022/01/07 00:03:57;;;;;;;4.63;3.95;;;-3.70;99.90;;;;;;5104294;27;20553;-58
2022/01/07 00:06:36;;;;;;;3.70;3.40;;;-3.60;99.90;;;;;;5104222;27;20665;-59
2022/01/07 00:09:16;;;;;;;4.85;4.40;;;-3.50;99.90;;;;;;5079899;28;20687;-59
2022/01/07 00:11:56;;;;;;;7.38;3.80;;;-3.50;99.90;;;;;;5155029;27;20958;-58
2022/01/07 00:14:36;;;;;;;3.63;3.33;;;-3.50;99.90;;;;;;5082140;28;21033;-58
2022/01/07 00:17:16;;;;;;;4.68;3.85;;;-3.70;99.90;;;;;;5118401;27;20554;-59
2022/01/07 00:19:56;;;;;;;4.50;4.10;;;-3.60;99.90;;;;;;5084680;27;20549;-58
2022/01/07 00:22:36;;;;;;;3.72;3.42;;;-3.70;99.90;;;;;;5125217;27;20560;-58
2022/01/07 00:25:16;;;;;;;3.33;3.03;;;-3.70;99.90;;;;;;5083619;28;20661;-58
2022/01/07 00:27:55;;;;;;;5.18;3.90;;;-3.80;99.90;;;;;;5125325;27;20555;-59
2022/01/07 00:30:36;;;;;;;4.80;3.53;;;-3.90;99.90;;;;;;5080553;27;21319;-58
2022/01/07 00:33:17;;;;;;;4.20;3.75;;;-3.90;99.90;;;;;;5082743;28;20681;-58
2022/01/07 00:35:57;;;;;;;4.07;3.65;;;-3.80;99.90;;;;;;5101881;27;21031;-58
2022/01/07 00:38:36;;;;;;;4.25;3.85;;;-3.60;99.90;;;;;;5082010;28;20656;-58
2022/01/07 00:41:16;;;;;;;5.43;4.10;;;-3.50;99.90;;;;;;5084151;28;20660;-58
2022/01/07 00:43:56;;;;;;;4.40;3.47;;;-3.50;99.90;;;;;;5104306;27;20561;-58
2022/01/07 00:46:35;;;;;;;5.05;3.65;;;-3.50;99.90;;;;;;5083351;27;20552;-58
2022/01/07 00:49:21;;;;;;;4.15;3.75;;;-3.50;99.90;;;;;;5145937;27;20612;-59
2022/01/07 00:52:01;;;;;;;3.60;3.30;;;-3.50;99.90;;;;;;5084760;27;20559;-59
2022/01/07 00:54:40;;;;;;;4.40;3.60;;;-3.40;99.90;;;;;;5124281;27;20828;-58
2022/01/07 00:57:19;;;;;;;3.72;3.40;;;-3.50;99.90;;;;;;5084607;28;20539;-59
2022/01/07 00:59:59;;;;;;;4.70;3.92;;;-3.60;99.90;;;;;;5104853;27;21063;-59
2022/01/07 01:02:39;;;;;;;4.55;3.60;;;-3.60;99.90;;;;;;5084941;27;20559;-58
2022/01/07 01:05:20;;;;;;;3.78;3.45;;;-3.70;99.90;;;;;;5083494;27;21019;-58
2022/01/07 01:07:59;;;;;;;6.07;3.53;;;-3.80;99.90;;;;;;5105218;27;20542;-59
2022/01/07 01:10:39;;;;;;;5.00;3.33;;;-3.90;99.90;;;;;;5084623;27;20532;-58
2022/01/07 01:13:19;;;;;;;4.18;3.78;;;-4.00;99.90;;;;;;5124973;27;21081;-58
2022/01/07 01:15:58;;;;;;;4.28;3.88;;;-4.00;99.90;;;;;;5144946;27;20586;-58
2022/01/07 01:18:38;;;;;;;4.13;3.30;;;-3.90;99.90;;;;;;5104862;27;20549;-59
2022/01/07 01:21:18;;;;;;;4.22;3.45;;;-3.80;99.90;;;;;;5084850;27;20540;-58
2022/01/07 01:23:58;;;;;;;4.22;3.92;;;-3.40;99.90;;;;;;5104939;27;20876;-58
2022/01/07 01:26:37;;;;;;;4.35;3.95;;;-3.10;99.90;;;;;;5084061;28;20687;-58
2022/01/07 01:29:20;;;;;;;3.63;3.30;;;-3.00;99.90;;;;;;5105014;27;20541;-59
2022/01/07 01:32:00;;;;;;;5.45;4.95;;;-3.00;99.90;;;;;;5104905;27;20538;-58
2022/01/07 01:34:40;;;;;;;4.78;4.38;;;-3.00;99.90;;;;;;5144840;27;20668;-57
2022/01/07 01:37:20;;;;;;;4.75;4.35;;;-2.80;99.90;;;;;;5084866;27;20532;-59
2022/01/07 01:40:00;;;;;;;4.85;4.35;;;-2.70;99.90;;;;;;5085245;28;20672;-58
2022/01/07 01:42:40;;;;;;;6.35;4.63;;;-2.60;99.90;;;;;;5145897;27;20547;-59
2022/01/07 01:45:21;;;;;;;6.18;5.28;;;-2.40;99.90;;;;;;5083184;28;21030;-58
2022/01/07 01:48:01;;;;;;;5.32;4.82;;;-2.30;99.90;;;;;;5125810;27;20541;-58
2022/01/07 01:50:41;;;;;;;5.50;5.07;;;-2.20;99.90;;;;;;5084383;27;20532;-58
2022/01/07 01:53:20;;;;;;;6.05;4.82;;;-2.10;99.90;;;;;;5084873;28;21064;-58
2022/01/07 01:56:01;;;;;;;5.60;5.05;;;-2.10;99.90;;;;;;5083733;27;20942;-57
2022/01/07 01:58:41;;;;;;;6.07;5.03;;;-2.10;99.90;;;;;;5084330;27;20540;-58
2022/01/07 02:01:20;;;;;;;6.45;5.20;;;-2.00;99.90;;;;;;5145995;27;20669;-58
2022/01/07 02:04:00;;;;;;;5.65;5.10;;;-2.00;99.90;;;;;;5105006;27;20534;-58
2022/01/07 02:06:41;;;;;;;6.80;6.25;;;-1.90;99.90;;;;;;5104722;27;21260;-58
2022/01/07 02:09:25;;;;;;;6.40;5.80;;;-1.90;99.90;;;;;;5104885;27;20984;-58
2022/01/07 02:12:06;;;;;;;6.43;5.93;;;-1.80;99.90;;;;;;5104973;27;20554;-58
2022/01/07 02:14:52;;;;;;;5.80;5.30;;;-1.70;99.90;;;;;;5103567;27;21210;-58
2022/01/07 02:17:32;;;;;;;7.22;6.53;;;-1.70;99.90;;;;;;5146523;27;20552;-58
2022/01/07 02:20:14;;;;;;;7.38;6.68;;;-1.70;99.90;;;;;;5084332;28;21027;-58
2022/01/07 02:22:54;;;;;;;8.15;7.43;;;-1.70;99.90;;;;;;5084822;27;20609;-58
2022/01/07 02:25:33;;;;;;;7.30;6.60;;;-1.60;99.90;;;;;;5124435;27;20548;-58
2022/01/07 02:28:13;;;;;;;6.93;6.05;;;-1.60;99.90;;;;;;5125506;27;20664;-58
2022/01/07 02:30:53;;;;;;;8.30;7.43;;;-1.60;99.90;;;;;;5105318;27;20541;-58
2022/01/07 02:33:32;;;;;;;9.38;7.95;;;-1.60;99.90;;;;;;5084684;27;21145;-58
2022/01/07 02:36:13;;;;;;;7.13;6.45;;;-1.60;99.90;;;;;;5083566;27;20559;-58
2022/01/07 02:38:54;;;;;;;8.63;7.82;;;-1.50;99.90;;;;;;5084471;27;21018;-58
2022/01/07 02:41:33;;;;;;;7.70;7.10;;;-1.50;99.90;;;;;;5084692;28;20547;-58
2022/01/07 02:44:13;;;;;;;8.05;7.35;;;-1.50;99.90;;;;;;5083369;27;20966;-58
2022/01/07 02:46:53;;;;;;;9.98;8.98;;;-1.40;99.90;;;;;;5084799;28;20656;-60
2022/01/07 02:49:33;;;;;;;8.32;7.53;;;-1.40;99.90;;;;;;5084833;27;20573;-58
2022/01/07 02:52:13;;;;;;;6.55;5.97;;;-1.40;99.90;;;;;;5105307;27;21190;-58
2022/01/07 02:55:06;;;;;;;7.05;6.35;;;-1.40;99.90;;;;;;5076573;28;20530;-58
2022/01/07 02:57:45;;;;;;;10.48;9.40;;;-1.40;99.90;;;;;;5084834;28;20675;-58
2022/01/07 03:00:27;;;;;;;8.23;7.43;;;-1.40;99.90;;;;;;5084488;28;20572;-58
2022/01/07 03:03:08;;;;;;;6.75;6.13;;;-1.40;99.90;;;;;;5084421;28;20543;-59
2022/01/07 03:05:48;;;;;;;7.60;6.80;;;-1.40;99.90;;;;;;5083542;27;20528;-58
2022/01/07 03:08:28;;;;;;;6.80;6.22;;;-1.40;99.90;;;;;;5084793;27;20536;-58
2022/01/07 03:11:07;;;;;;;6.93;6.35;;;-1.40;99.90;;;;;;5084618;28;20967;-59
2022/01/07 03:13:47;;;;;;;6.57;6.07;;;-1.30;99.90;;;;;;5084135;28;20679;-58
2022/01/07 03:16:27;;;;;;;7.88;6.45;;;-1.40;99.90;;;;;;5104099;27;20534;-59
2022/01/07 03:19:07;;;;;;;7.65;7.00;;;-1.30;99.90;;;;;;5146020;27;20669;-59
2022/01/07 03:21:47;;;;;;;6.82;6.05;;;-1.30;99.90;;;;;;5125267;27;20524;-58
2022/01/07 03:24:27;;;;;;;8.63;7.22;;;-1.30;99.90;;;;;;5144629;27;20543;-58
2022/01/07 03:27:07;;;;;;;7.07;6.47;;;-1.30;99.90;;;;;;5084644;28;20551;-58
2022/01/07 03:29:46;;;;;;;8.98;7.57;;;-1.30;99.90;;;;;;5151644;27;20654;-59
2022/01/07 03:32:26;;;;;;;7.82;7.22;;;-1.30;99.90;;;;;;5082698;27;20691;-58
2022/01/07 03:35:09;;;;;;;7.28;6.15;;;-1.30;99.90;;;;;;5081001;27;20543;-59
2022/01/07 03:37:50;;;;;;;7.03;6.35;;;-1.30;99.90;;;;;;5104566;27;21058;-58
2022/01/07 03:40:30;;;;;;;6.85;6.15;;;-1.30;99.90;;;;;;5144883;27;20661;-58
2022/01/07 03:43:09;;;;;;;6.88;6.32;;;-1.20;99.90;;;;;;5105240;27;20545;-59
2022/01/07 03:45:48;;;;;;;8.00;6.70;;;-1.20;99.90;;;;;;5083465;28;20660;-58
2022/01/07 03:48:28;;;;;;;8.18;5.30;;;-1.30;99.90;;;;;;5084779;27;20535;-58
2022/01/07 03:51:08;;;;;;;5.60;5.03;;;-1.30;99.90;;;;;;5125299;27;21029;-58
2022/01/07 03:53:48;;;;;;;6.78;6.28;;;-1.30;99.90;;;;;;5084540;28;20667;-58
2022/01/07 03:56:28;;;;;;;5.65;5.10;;;-1.40;99.90;;;;;;5145384;27;20981;-58
2022/01/07 03:59:08;;;;;;;6.00;5.22;;;-1.40;99.90;;;;;;5104634;27;20658;-58
2022/01/07 04:01:47;;;;;;;6.10;5.63;;;-1.50;99.90;;;;;;5084490;28;20671;-59
2022/01/07 04:04:27;;;;;;;8.75;4.38;;;-1.50;99.90;;;;;;5083229;28;21022;-58
2022/01/07 04:07:07;;;;;;;5.70;5.22;;;-1.50;99.90;;;;;;5084271;27;20894;-58
2022/01/07 04:09:47;;;;;;;6.07;5.57;;;-1.50;99.90;;;;;;5145601;27;20531;-58
2022/01/07 04:12:27;;;;;;;7.60;5.60;;;-1.50;99.90;;;;;;5084566;28;20680;-58
2022/01/07 04:15:08;;;;;;;6.13;5.63;;;-1.60;99.90;;;;;;5124255;27;20544;-59
2022/01/07 04:17:50;;;;;;;5.57;5.07;;;-1.60;99.90;;;;;;5125362;27;20536;-58
2022/01/07 04:20:31;;;;;;;4.13;3.80;;;-1.70;99.90;;;;;;5145942;27;20889;-59
2022/01/07 04:23:11;;;;;;;5.25;4.75;;;-1.70;99.90;;;;;;5125577;27;20860;-59
2022/01/07 04:25:51;;;;;;;6.43;5.68;;;-1.70;99.90;;;;;;5125103;27;20532;-58
2022/01/07 04:28:30;;;;;;;9.18;5.30;;;-1.70;99.90;;;;;;5104714;27;20673;-59
2022/01/07 04:31:10;;;;;;;6.47;5.30;;;-1.70;99.90;;;;;;5145856;27;21059;-58
2022/01/07 04:33:50;;;;;;;5.75;5.07;;;-1.70;99.90;;;;;;5084598;27;20688;-59
2022/01/07 04:36:30;;;;;;;7.03;6.38;;;-1.70;99.90;;;;;;5083906;27;20871;-58
2022/01/07 04:39:10;;;;;;;6.60;6.07;;;-1.70;99.90;;;;;;5084595;27;20557;-58
2022/01/07 04:41:50;;;;;;;6.85;6.20;;;-1.70;99.90;;;;;;5105107;27;20550;-58
2022/01/07 04:44:29;;;;;;;7.18;6.47;;;-1.70;99.90;;;;;;5083756;28;21196;-58
2022/01/07 04:47:10;;;;;;;7.38;6.68;;;-1.70;99.90;;;;;;5104120;27;20599;-58
2022/01/07 04:49:50;;;;;;;7.65;6.93;;;-1.70;99.90;;;;;;5124093;27;20548;-58
2022/01/07 04:52:29;;;;;;;7.40;6.75;;;-1.60;99.90;;;;;;5077049;28;20561;-59
2022/01/07 04:55:09;;;;;;;10.07;6.82;;;-1.60;99.90;;;;;;5145165;27;20654;-58
2022/01/07 04:57:49;;;;;;;7.75;7.05;;;-1.60;99.90;;;;;;5125624;27;20555;-58
2022/01/07 05:00:29;;;;;;;7.45;6.85;;;-1.60;99.90;;;;;;5125477;27;20932;-58
2022/01/07 05:03:08;;;;;;;7.60;6.80;;;-1.60;99.90;;;;;;5104915;27;20669;-59
2022/01/07 05:05:57;;;;;;;9.13;8.38;;;-1.60;99.90;;;;;;5144830;27;20562;-58
2022/01/07 05:08:37;;;;;;;8.30;7.53;;;-1.60;99.90;;;;;;5125543;27;20532;-58
2022/01/07 05:11:17;;;;;;;7.75;7.07;;;-1.60;99.90;;;;;;5104950;27;20542;-59
2022/01/07 05:13:57;;;;;;;9.15;8.25;;;-1.50;99.90;;;;;;5125350;27;20564;-59
2022/01/07 05:16:37;;;;;;;5.15;4.47;;;-1.50;99.90;;;;;;5083922;27;20557;-59
2022/01/07 05:19:17;;;;;;;8.15;6.50;;;-1.50;99.90;;;;;;5085133;27;20687;-58
2022/01/07 05:21:57;;;;;;;2.97;2.67;;;-1.40;99.90;;;;;;5084917;27;21216;-59
2022/01/07 05:24:36;;;;;;;9.18;6.72;;;-1.40;99.90;;;;;;5145320;27;21071;-58
2022/01/07 05:27:16;;;;;;;8.00;7.30;;;-1.30;99.90;;;;;;5146684;27;20531;-58
2022/01/07 05:29:56;;;;;;;8.13;7.35;;;-1.30;99.90;;;;;;5084542;28;20539;-59
2022/01/07 05:32:36;;;;;;;8.27;6.47;;;-1.20;99.90;;;;;;5125655;27;20562;-59
2022/01/07 05:35:16;;;;;;;8.18;4.93;;;-1.20;99.90;;;;;;5083535;28;21068;-59
2022/01/07 05:37:56;;;;;;;3.55;3.22;;;-1.20;99.90;;;;;;5084747;28;20916;-58
2022/01/07 05:40:35;;;;;;;8.77;6.40;;;-1.20;99.90;;;;;;5105025;27;20538;-59
2022/01/07 05:43:15;;;;;;;7.30;6.57;;;-1.10;99.90;;;;;;5105421;27;20677;-58
2022/01/07 05:45:56;;;;;;;8.57;7.88;;;-1.10;99.90;;;;;;5084187;28;20680;-58
2022/01/07 05:48:37;;;;;;;2.67;2.47;;;-1.10;99.90;;;;;;5105145;27;20530;-58
2022/01/07 05:51:17;;;;;;;6.22;5.55;;;-1.10;99.90;;;;;;5125913;27;20536;-59
2022/01/07 05:53:56;;;;;;;7.05;5.93;;;-1.00;99.90;;;;;;5105198;27;20678;-58
2022/01/07 05:56:36;;;;;;;4.22;3.72;;;-1.00;99.90;;;;;;5145400;27;21182;-59
2022/01/07 05:59:16;;;;;;;8.60;7.15;;;-1.00;99.90;;;;;;5085918;27;20675;-58
2022/01/07 06:01:56;;;;;;;10.15;9.15;;;-0.90;99.90;;;;;;5083384;28;20680;-58
2022/01/07 06:04:35;;;;;;;11.65;6.93;;;-0.90;99.90;;;;;;5103253;27;20560;-58
2022/01/07 06:07:15;;;;;;;13.15;7.65;;;-1.00;99.90;;;;;;5125244;27;20950;-59
2022/01/07 06:09:55;;;;;;;7.28;6.60;;;-0.90;99.90;;;;;;5104437;27;20530;-58
2022/01/07 06:12:35;;;;;;;9.18;8.35;;;-0.90;99.90;;;;;;5084213;28;20675;-58
2022/01/07 06:15:15;;;;;;;6.82;6.18;;;-0.90;99.90;;;;;;5144260;27;20830;-58
2022/01/07 06:17:55;;;;;;;7.07;6.47;;;-0.90;99.90;;;;;;5146046;27;20538;-58
2022/01/07 06:20:34;;;;;;;5.47;4.95;;;-0.90;99.90;;;;;;5145545;27;20946;-59
2022/01/07 06:23:14;;;;;;;4.55;4.10;;;-0.90;99.90;;;;;;5084240;28;21233;-59
2022/01/07 06:25:54;;;;;;;3.50;3.22;;;-0.90;99.90;;;;;;5083394;27;21088;-58
2022/01/07 06:28:34;;;;;;;5.20;4.70;;;-0.90;99.90;;;;;;5084712;27;20560;-59
2022/01/07 06:31:14;;;;;;;8.02;7.35;;;-0.90;99.90;;;;;;5104048;27;20662;-58
2022/01/07 06:33:53;;;;;;;8.13;7.32;;;-0.90;99.90;;;;;;5165589;27;20541;-58
2022/01/07 06:36:33;;;;;;;5.57;4.85;;;-0.90;99.90;;;;;;5083749;28;21023;-59
2022/01/07 06:39:13;;;;;;;7.32;6.63;;;-1.00;99.90;;;;;;5084235;28;20628;-58
2022/01/07 06:41:53;;;;;;;5.90;4.68;;;-1.00;99.90;;;;;;5083633;27;20680;-59
2022/01/07 06:44:33;;;;;;;7.20;6.60;;;-1.00;99.90;;;;;;5083375;27;20581;-58
2022/01/07 06:47:13;;;;;;;5.78;5.18;;;-0.90;99.90;;;;;;5125080;27;20567;-58
2022/01/07 06:49:53;;;;;;;4.18;3.10;;;-1.00;99.90;;;;;;5105329;27;20530;-58
2022/01/07 06:52:32;;;;;;;5.28;4.80;;;-0.90;99.90;;;;;;5105208;27;20545;-58
2022/01/07 06:55:13;;;;;;;3.45;2.65;;;-0.90;99.90;;;;;;5104346;27;20542;-58
2022/01/07 06:57:52;;;;;;;5.97;5.38;;;-0.90;99.90;;;;;;5104863;27;20541;-59
2022/01/07 07:00:32;;;;;;;6.22;5.47;;;-0.90;99.90;;;;;;5082675;27;20556;-58
2022/01/07 07:03:12;;;;;;;8.73;6.20;;;-0.90;99.90;;;;;;5084704;28;21076;-59
2022/01/07 07:05:51;;;;;;;6.38;5.55;;;-0.90;99.90;;;;;;5082725;27;20898;-58
2022/01/07 07:08:31;;;;;;;8.35;7.55;;;-0.90;99.90;;;;;;5104912;27;20946;-58
2022/01/07 07:11:11;;;;;;;6.75;6.25;;;-0.90;99.90;;;;;;5103110;27;20654;-58
2022/01/07 07:13:51;;;;;;;7.60;6.57;;;-0.80;99.90;;;;;;5124288;27;20548;-59
2022/01/07 07:16:31;;;;;;;4.47;4.05;;;-0.80;99.90;;;;;;5124605;27;20536;-58
2022/01/07 07:19:11;;;;;;;5.63;4.80;;;-0.90;99.90;;;;;;5104749;27;20670;-58
2022/01/07 07:21:51;;;;;;;7.32;6.63;;;-0.80;99.90;;;;;;5104968;27;20662;-59
2022/01/07 07:24:30;;;;;;;7.97;7.20;;;-0.80;99.90;;;;;;5083424;27;20543;-58
2022/01/07 07:27:10;;;;;;;5.80;5.20;;;-0.80;99.90;;;;;;5104543;27;20965;-58
2022/01/07 07:29:50;;;;;;;9.63;8.40;;;-0.80;99.90;;;;;;5082651;27;20580;-59
2022/01/07 07:32:31;;;;;;;6.93;6.15;;;-0.80;99.90;;;;;;5103793;27;21001;-58
2022/01/07 07:38:07;;;;;;;7.47;6.88;;;-0.80;99.90;;;;;;5125178;27;20536;-58
2022/01/07 07:40:47;;;;;;;8.27;7.68;;;-0.80;99.90;;;;;;5104302;27;20961;-58
2022/01/07 07:43:27;;;;;;;6.85;6.25;;;-0.80;99.90;;;;;;5104433;27;21337;-58
2022/01/07 07:46:07;;;;;;;7.68;7.07;;;-0.80;99.90;;;;;;5145071;27;20658;-58
2022/01/07 07:48:47;;;;;;;4.20;2.63;;;-0.70;99.90;;;;;;5084485;27;20555;-58
2022/01/07 07:51:26;;;;;;;7.00;6.35;;;-0.70;99.90;;;;;;5084836;27;20551;-58
2022/01/07 07:54:06;;;;;;;7.05;6.45;;;-0.70;99.90;;;;;;5124243;27;20970;-58
2022/01/07 07:56:46;;;;;;;7.20;6.28;;;-0.70;99.90;;;;;;5104677;27;21046;-58
2022/01/07 07:59:26;;;;;;;6.57;5.43;;;-0.70;99.90;;;;;;5124799;27;20539;-58
2022/01/07 08:02:05;;;;;;;6.32;5.82;;;-0.70;99.90;;;;;;5124569;27;20568;-58
2022/01/07 08:04:45;;;;;;;6.65;5.45;;;-0.70;99.90;;;;;;5103212;27;20669;-58
2022/01/07 08:07:25;;;;;;;7.38;6.18;;;-0.70;99.90;;;;;;5084217;27;20536;-59
2022/01/07 08:10:06;;;;;;;5.57;5.07;;;-0.60;99.90;;;;;;5083057;27;20539;-59
2022/01/07 08:13:03;;;;;;;6.35;5.85;;;-0.60;99.90;;;;;;5083821;27;20551;-58
2022/01/07 08:16:02;;;;;;;6.53;4.00;;;-0.50;99.90;;;;;;5121803;27;20547;-58
2022/01/07 08:18:55;;;;;;;6.78;5.78;;;-0.50;99.90;;;;;;5082406;27;20535;-58
2022/01/07 08:21:35;;;;;;;6.45;5.82;;;-0.40;99.90;;;;;;5083047;28;20672;-58
2022/01/07 08:24:14;;;;;;;5.35;4.88;;;-0.30;99.90;;;;;;5082136;28;20948;-58
2022/01/07 08:26:54;;;;;;;8.45;5.82;;;-0.30;99.90;;;;;;5082443;28;21018;-58
2022/01/07 08:29:37;;;;;;;5.93;4.72;;;-0.20;99.90;;;;;;5102198;27;20545;-58
2022/01/07 08:35:14;;;;;;;5.57;4.82;;;-0.30;99.90;;;;;;5103593;27;20542;-58
2022/01/07 08:37:54;;;;;;;2.85;2.35;;;-0.30;99.90;;;;;;5145905;27;20539;-58
2022/01/07 08:40:34;;;;;;;9.48;6.30;;;-0.30;99.90;;;;;;5104268;27;21112;-58
2022/01/07 08:43:14;;;;;;;8.27;7.50;;;-0.30;99.90;;;;;;5104667;27;20542;-58
2022/01/07 08:45:54;;;;;;;6.85;6.25;;;-0.30;99.90;;;;;;5103549;27;20670;-59
2022/01/07 08:48:35;;;;;;;6.03;5.60;;;-0.40;99.90;;;;;;5083542;27;21051;-58
2022/01/07 08:51:15;;;;;;;5.25;4.75;;;-0.40;99.90;;;;;;5146103;27;21201;-59
2022/01/07 08:53:55;;;;;;;6.47;5.18;;;-0.40;99.90;;;;;;5084683;28;20680;-58
2022/01/07 08:56:35;;;;;;;5.97;5.10;;;-0.30;99.90;;;;;;5084082;28;20660;-58
2022/01/07 08:59:14;;;;;;;8.50;7.50;;;-0.20;99.90;;;;;;5084652;27;20684;-58
2022/01/07 09:01:54;;;;;;;8.88;8.10;;;-0.10;99.90;;;;;;5105307;27;20665;-59
2022/01/07 09:04:34;;;;;;;7.15;6.45;;;-0.10;99.90;;;;;;5084536;27;20896;-58
2022/01/07 09:07:14;;;;;;;8.18;6.22;;;-0.10;99.90;;;;;;5105669;27;21074;-58
2022/01/07 09:09:54;;;;;;;24.58;22.17;;;-0.10;99.90;;;;;;5105455;27;20542;-58
2022/01/07 09:12:34;;;;;;;3.47;3.17;;;0.00;99.90;;;;;;5083611;27;20570;-58
2022/01/07 09:15:14;;;;;;;7.25;5.43;;;0.00;99.90;;;;;;5071671;27;20691;-59
2022/01/07 09:17:53;;;;;;;4.75;3.92;;;0.00;99.90;;;;;;5116507;27;20538;-58
2022/01/07 09:20:33;;;;;;;4.03;3.72;;;0.00;99.90;;;;;;5104025;27;20545;-58
2022/01/07 09:23:13;;;;;;;4.60;4.20;;;0.10;99.90;;;;;;5104311;27;20673;-59
2022/01/07 09:25:53;;;;;;;6.28;5.68;;;0.10;99.90;;;;;;5082629;28;20833;-58
2022/01/07 09:28:32;;;;;;;6.63;6.03;;;0.10;99.90;;;;;;5084576;28;20565;-58
2022/01/07 09:31:14;;;;;;;7.13;6.43;;;0.10;99.90;;;;;;5125274;27;21216;-58
2022/01/07 09:33:54;;;;;;;6.82;5.18;;;0.10;99.90;;;;;;5103368;27;20578;-58
2022/01/07 09:36:34;;;;;;;7.65;6.25;;;0.10;99.90;;;;;;5083033;27;20543;-58
2022/01/07 09:39:14;;;;;;;7.47;6.88;;;0.00;99.90;;;;;;5082407;27;21036;-58
2022/01/07 09:42:01;;;;;;;7.53;6.82;;;0.00;99.90;;;;;;5105163;22;20538;31
2022/01/07 09:44:43;;;;;;;7.13;6.47;;;-0.10;99.90;;;;;;5145039;27;20685;-58
2022/01/07 09:47:22;;;;;;;8.25;7.45;;;-0.20;99.90;;;;;;5146036;27;20960;-58
2022/01/07 09:50:02;;;;;;;7.38;6.63;;;-0.20;99.90;;;;;;5105374;27;20681;-58
2022/01/07 09:52:42;;;;;;;7.75;6.88;;;-0.20;99.90;;;;;;5084409;28;20675;-58
2022/01/07 09:55:23;;;;;;;8.85;8.07;;;-0.20;99.90;;;;;;5144284;27;20666;-58
2022/01/07 09:58:02;;;;;;;9.65;8.82;;;-0.20;99.90;;;;;;5105053;27;20681;-58
2022/01/07 10:00:43;;;;;;;9.73;8.88;;;-0.20;99.90;;;;;;5084289;27;20536;-58
2022/01/07 10:03:23;;;;;;;9.15;8.35;;;-0.10;99.90;;;;;;5084738;28;20684;-58
2022/01/07 10:06:03;;;;;;;9.50;8.63;;;-0.10;99.90;;;;;;5083959;27;20551;-58
2022/01/07 10:08:43;;;;;;;8.80;8.05;;;0.00;99.90;;;;;;5131431;27;20540;-58
2022/01/07 10:11:23;;;;;;;10.80;9.88;;;0.00;99.90;;;;;;5105187;27;20685;-58
2022/01/07 10:14:27;;;;;;;10.23;9.27;;;0.00;99.90;;;;;;5084140;27;20594;-58
2022/01/07 10:17:08;;;;;;;10.18;9.38;;;-0.10;99.90;;;;;;5146047;27;20534;-58
2022/01/07 10:19:49;;;;;;;9.57;8.82;;;-0.10;99.90;;;;;;5084666;28;20660;-58
2022/01/07 10:22:29;;;;;;;8.43;7.72;;;-0.10;99.90;;;;;;5105346;27;21214;-58
2022/01/07 10:25:09;;;;;;;8.80;8.05;;;-0.10;99.90;;;;;;5144994;27;21092;-58
2022/01/07 10:27:49;;;;;;;10.98;9.98;;;-0.20;99.90;;;;;;5084941;28;20668;-58
2022/01/07 10:30:34;;;;;;;9.68;8.85;;;-0.10;99.90;;;;;;5123962;27;20544;-58
2022/01/07 10:33:23;;;;;;;9.07;8.38;;;-0.10;99.90;;;;;;5126036;27;20548;-58
2022/01/07 10:36:16;;;;;;;9.20;8.48;;;-0.10;99.90;;;;;;5084252;27;20577;-58
2022/01/07 10:39:00;;;;;;;9.73;8.82;;;0.00;99.90;;;;;;5084826;27;20550;-58
2022/01/07 10:41:59;;;;;;;10.20;9.30;;;0.10;99.90;;;;;;5113315;27;21617;-58
2022/01/07 10:44:59;;;;;;;10.65;9.82;;;0.30;99.90;;;;;;5101788;27;20619;-58
2022/01/07 10:47:38;;;;;;;9.95;9.18;;;0.40;99.90;;;;;;5083476;28;20669;-58
2022/01/07 10:50:20;;;;;;;6.85;6.25;;;0.40;99.90;;;;;;5125099;27;20544;-58
2022/01/07 10:53:18;;;;;;;10.07;9.27;;;0.50;99.90;;;;;;5075178;27;21041;-58
2022/01/07 10:56:10;;;;;;;10.27;9.43;;;0.50;99.90;;;;;;5083596;28;20663;-58
2022/01/07 10:59:01;;;;;;;10.75;9.88;;;0.60;99.90;;;;;;5146210;27;20538;-58
2022/01/07 11:01:42;;;;;;;11.05;10.15;;;0.70;99.90;;;;;;5084325;28;20679;-56
2022/01/07 11:04:26;;;;;;;12.23;11.13;;;0.80;99.90;;;;;;5104209;27;21058;-58
2022/01/07 11:07:12;;;;;;;12.32;11.23;;;0.80;99.90;;;;;;5105048;27;20584;-58
2022/01/07 11:09:53;;;;;;;10.63;9.70;;;0.80;99.90;;;;;;5145436;27;21051;-58
2022/01/07 11:12:33;;;;;;;10.75;9.88;;;0.80;99.90;;;;;;5077724;27;21175;-58
2022/01/07 11:15:12;;;;;;;10.23;9.48;;;0.80;99.90;;;;;;5081564;28;20608;-58
2022/01/07 11:17:52;;;;;;;11.88;10.88;;;0.90;99.90;;;;;;5142117;27;20620;-58
2022/01/07 11:20:32;;;;;;;7.25;6.65;;;1.00;99.90;;;;;;5082421;28;20664;-59
2022/01/07 11:23:11;;;;;;;11.07;10.00;;;1.10;99.90;;;;;;5107199;27;21079;-58
2022/01/07 11:26:00;;;;;;;10.13;9.23;;;1.10;99.90;;;;;;5082146;27;21119;-58
2022/01/07 11:28:59;;;;;;;10.65;9.75;;;1.10;99.90;;;;;;5083143;28;20668;-56
2022/01/07 11:31:38;;;;;;;11.05;10.15;;;1.20;99.90;;;;;;5139327;27;21057;-57
2022/01/07 11:34:27;;;;;;;14.55;13.23;;;1.30;99.90;;;;;;5102917;27;20605;-58
2022/01/07 11:37:32;;;;;;;14.38;13.00;;;1.40;99.90;;;;;;5083059;27;20557;-58
2022/01/07 11:40:43;;;;;;;12.02;11.13;;;1.40;99.90;;;;;;5087759;22;20957;-58
2022/01/07 11:43:32;;;;;;;16.35;14.77;;;1.40;99.90;;;;;;5151549;27;20562;-58
2022/01/07 11:46:32;;;;;;;14.80;13.40;;;1.50;99.90;;;;;;5126284;27;20671;-58
2022/01/07 11:49:33;;;;;;;11.77;10.73;;;1.50;99.90;;;;;;5132656;27;20687;-58
2022/01/07 11:52:33;;;;;;;10.88;9.88;;;1.50;99.90;;;;;;5123020;27;20677;-58
2022/01/07 11:55:27;;;;;;;14.70;13.60;;;1.60;99.90;;;;;;5098436;27;21172;-58
2022/01/07 11:58:08;;;;;;;20.95;19.00;;;1.50;99.90;;;;;;5115088;27;20557;-58
2022/01/07 12:00:54;;;;;;;17.92;16.13;;;1.60;99.90;;;;;;5102153;27;21031;-58
2022/01/07 12:03:36;;;;;;;13.35;12.25;;;1.70;99.90;;;;;;5144862;27;20543;-58
2022/01/07 12:06:50;;;;;;;13.15;12.15;;;1.70;99.90;;;;;;5101988;27;20891;-58
2022/01/07 12:09:40;;;;;;;10.93;9.93;;;1.70;99.90;;;;;;5069892;27;20561;-58
2022/01/07 12:12:21;;;;;;;10.98;10.10;;;1.70;99.90;;;;;;5081844;27;21031;-58
2022/01/07 12:15:02;;;;;;;10.32;9.60;;;1.60;99.90;;;;;;5122934;27;20540;-58
2022/01/07 12:17:42;;;;;;;7.85;7.10;;;1.60;99.90;;;;;;5153481;27;20609;-58
2022/01/07 12:20:50;;;;;;;10.55;9.75;;;1.50;99.90;;;;;;5064871;28;20591;-58
2022/01/07 12:23:30;;;;;;;12.43;11.40;;;1.50;99.90;;;;;;5095957;27;20585;-58
2022/01/07 12:26:11;;;;;;;10.98;10.10;;;1.40;99.90;;;;;;5083087;27;20543;-58
2022/01/07 12:28:50;;;;;;;9.75;9.05;;;1.40;99.90;;;;;;5096813;27;20559;-58
2022/01/07 12:31:30;;;;;;;10.93;10.13;;;1.40;99.90;;;;;;5123787;27;20672;-58
2022/01/07 12:34:09;;;;;;;9.75;9.05;;;1.40;99.90;;;;;;5082923;27;20540;-58
2022/01/07 12:36:56;;;;;;;10.60;9.85;;;1.40;99.90;;;;;;5084081;28;20540;-56
2022/01/07 12:39:37;;;;;;;9.88;9.15;;;1.40;99.90;;;;;;5104305;27;20643;-56
2022/01/07 12:42:17;;;;;;;11.02;10.13;;;1.30;99.90;;;;;;5124483;27;20923;-56
2022/01/07 12:44:59;;;;;;;10.82;10.02;;;1.20;99.90;;;;;;5103506;27;20550;-58
2022/01/07 12:47:38;;;;;;;11.73;10.82;;;1.10;99.90;;;;;;5084741;27;20539;-58
2022/01/07 12:50:18;;;;;;;9.63;8.93;;;1.10;99.90;;;;;;5145646;27;20558;-58
2022/01/07 12:52:58;;;;;;;10.43;9.68;;;1.00;99.90;;;;;;5104807;27;20681;-56
2022/01/07 12:55:38;;;;;;;9.57;8.88;;;0.90;99.90;;;;;;5083403;28;20664;-58
2022/01/07 12:58:27;;;;;;;9.90;9.20;;;0.90;99.90;;;;;;5125367;27;21040;-58
2022/01/07 13:01:07;;;;;;;10.10;9.25;;;0.80;99.90;;;;;;5083474;27;20886;-58
2022/01/07 13:03:47;;;;;;;10.43;9.57;;;0.90;99.90;;;;;;5145564;27;20665;-58
2022/01/07 13:06:27;;;;;;;11.27;10.48;;;0.90;99.90;;;;;;5083852;27;20555;-56
2022/01/07 13:09:07;;;;;;;9.82;9.23;;;0.80;99.90;;;;;;5082175;28;21031;-58
2022/01/07 13:11:50;;;;;;;10.45;9.75;;;0.80;99.90;;;;;;5085035;27;20899;-56
2022/01/07 13:14:30;;;;;;;10.90;10.07;;;0.80;99.90;;;;;;5103586;27;21198;-58
2022/01/07 13:17:10;;;;;;;10.60;9.80;;;0.90;99.90;;;;;;5084648;27;20687;-58
2022/01/07 13:19:51;;;;;;;10.55;9.82;;;0.80;99.90;;;;;;5084106;27;20552;-58
2022/01/07 13:22:31;;;;;;;10.43;9.63;;;0.80;99.90;;;;;;5104547;27;21021;-58
2022/01/07 13:25:13;;;;;;;9.90;9.02;;;0.80;99.90;;;;;;5078890;27;20624;-58
2022/01/07 13:27:52;;;;;;;9.27;8.57;;;0.70;99.90;;;;;;5083896;28;20583;-58
2022/01/07 13:30:39;;;;;;;9.32;8.52;;;0.70;99.90;;;;;;5100677;27;20618;-57
2022/01/07 13:33:18;;;;;;;10.60;9.68;;;0.60;99.90;;;;;;5102508;27;20685;-58
2022/01/07 13:35:59;;;;;;;10.15;9.45;;;0.60;99.90;;;;;;5082873;28;20675;-58
2022/01/07 13:38:40;;;;;;;9.82;8.93;;;0.60;99.90;;;;;;5103484;27;20673;-59
2022/01/07 13:41:20;;;;;;;12.57;11.40;;;0.60;99.90;;;;;;5145506;27;20669;-58
2022/01/07 13:44:06;;;;;;;12.23;11.13;;;0.60;99.90;;;;;;5084256;28;21052;-59
2022/01/07 13:46:53;;;;;;;12.35;11.05;;;0.60;99.90;;;;;;5061327;27;21077;-58
2022/01/07 13:49:34;;;;;;;13.35;12.10;;;0.60;99.90;;;;;;5159751;27;20658;-59
2022/01/07 13:52:14;;;;;;;12.38;11.25;;;0.50;99.90;;;;;;5083942;27;21172;-59
2022/01/07 13:54:55;;;;;;;10.95;9.98;;;0.50;99.90;;;;;;5082517;27;20543;-58
2022/01/07 13:57:35;;;;;;;10.90;10.10;;;0.40;99.90;;;;;;5084168;27;20569;-58
2022/01/07 14:00:15;;;;;;;11.63;10.73;;;0.40;99.90;;;;;;5084937;28;20555;-58
2022/01/07 14:02:57;;;;;;;11.90;10.77;;;0.30;99.90;;;;;;5084658;28;20543;-59
2022/01/07 14:05:37;;;;;;;11.40;10.50;;;0.30;99.90;;;;;;5078695;28;21195;-58